Погода Новоселый 1-йна 2 недели

Ростовская область, Россия

22 мая-04 июня
  • 22мая
    Сегодня
    +11°
    +27°
    Ясно и безоблачно
    ВремяПогодаТемператураВлажностьДавлениеВетер, м/сВероятность осадков
    00:00Ясно и безоблачно+14°C67 %760 мм1.8 м/с2 %
    03:00Ясно и безоблачно+12°C74 %760 мм1.7 м/с2 %
    06:00Ясно и безоблачно+13°C68 %760 мм1.5 м/с2 %
    09:00Ясно и безоблачно+21°C48 %760 мм2.7 м/с2 %
    12:00Ясно и безоблачно+25°C27 %760 мм3.8 м/с2 %
    15:00Ясно и безоблачно+26°C25 %759 мм4.3 м/с2 %
    18:00Ясно и безоблачно+25°C32 %758 мм3.2 м/с2 %
    21:00Ясно и безоблачно+18°C42 %758 мм2.0 м/с2 %
  • 23мая
    Четверг
    +15°
    +26°
    Ясно и безоблачно
    ВремяПогодаТемператураВлажностьДавлениеВетер, м/сВероятность осадков
    00:00Ясно и безоблачно+15°C55 %758 мм2.1 м/с2 %
    03:00Ясно и безоблачно+12°C51 %758 мм1.7 м/с2 %
    06:00Ясно и безоблачно+13°C61 %758 мм1.8 м/с2 %
    09:00Ясно и безоблачно+20°C49 %758 мм3.5 м/с2 %
    12:00Ясно и безоблачно+25°C27 %758 мм4.4 м/с2 %
    15:00Ясно и безоблачно+26°C26 %757 мм5.0 м/с2 %
    18:00Ясно и безоблачно+25°C29 %757 мм3.2 м/с2 %
    21:00Ясно и безоблачно+18°C45 %757 мм4.1 м/с2 %
  • 24мая
    Пятница
    +12°
    +24°
    Ясно и безоблачно
    ВремяПогодаТемператураВлажностьДавлениеВетер, м/сВероятность осадков
    00:00Ясно и безоблачно+17°C43 %757 мм3.7 м/с2 %
    03:00Ясно и безоблачно+15°C51 %758 мм3.6 м/с2 %
    06:00Ясно и безоблачно+17°C65 %759 мм3.5 м/с2 %
    09:00Ясно и безоблачно+20°C50 %760 мм6.2 м/с2 %
    12:00Ясно и безоблачно+23°C39 %761 мм6.5 м/с4 %
    15:00Ясно и безоблачно+24°C32 %760 мм6.7 м/с7 %
    18:00Ясно и безоблачно+23°C29 %760 мм7.0 м/с2 %
    21:00Ясно и безоблачно+18°C21 %762 мм6.4 м/с2 %
  • 25мая
    Суббота
    +12°
    +23°
    Практически безоблачно
    ВремяПогодаТемператураВлажностьДавлениеВетер, м/сВероятность осадков
    00:00Ясно и безоблачно+16°C25 %763 мм6.3 м/с2 %
    03:00Ясно и безоблачно+13°C29 %763 мм5.6 м/с2 %
    06:00Ясно и безоблачно+13°C38 %764 мм4.9 м/с2 %
    09:00Ясно и безоблачно+16°C35 %764 мм6.9 м/с2 %
    12:00Ясно и безоблачно+20°C33 %764 мм7.5 м/с2 %
    15:00Практически безоблачно+23°C26 %762 мм7.1 м/с2 %
    18:00Облачно с прояснениями+21°C24 %762 мм6.7 м/с2 %
    21:00Пасмурно, сплошная облачность+18°C25 %762 мм6.0 м/с2 %
  • 26мая
    Воскресенье
    +11°
    +23°
    Небольшая облачность
    ВремяПогодаТемператураВлажностьДавлениеВетер, м/сВероятность осадков
    00:00Облачно с прояснениями+16°C40 %762 мм5.3 м/с2 %
    03:00Облачно с прояснениями+12°C45 %762 мм4.3 м/с4 %
    06:00Облачно с прояснениями+13°C65 %762 мм4.0 м/с4 %
    09:00Небольшая облачность+17°C50 %761 мм6.0 м/с9 %
    12:00Небольшая облачность+20°C32 %760 мм7.0 м/с6 %
    15:00Небольшая облачность+21°C28 %760 мм6.6 м/с2 %
    18:00Практически безоблачно+21°C27 %759 мм5.8 м/с8 %
    21:00Практически безоблачно+19°C28 %760 мм4.7 м/с12 %
Мы используем cookies
Соглашаюсь